sensor_id;sensor_type;location;lat;lon;timestamp;P1;durP1;ratioP1;P2;durP2;ratioP2
15198;SDS011;7700;48.654;9.070;2023-08-17T00:00:34;6.22;;;5.63;;
15198;SDS011;7700;48.654;9.070;2023-08-17T00:03:00;5.95;;;5.55;;
15198;SDS011;7700;48.654;9.070;2023-08-17T00:05:26;5.50;;;4.93;;
15198;SDS011;7700;48.654;9.070;2023-08-17T00:07:52;6.07;;;5.22;;
15198;SDS011;7700;48.654;9.070;2023-08-17T00:10:18;6.13;;;5.70;;
15198;SDS011;7700;48.654;9.070;2023-08-17T00:12:44;5.57;;;5.18;;
15198;SDS011;7700;48.654;9.070;2023-08-17T00:15:10;5.65;;;5.15;;
15198;SDS011;7700;48.654;9.070;2023-08-17T00:17:36;5.82;;;5.32;;
15198;SDS011;7700;48.654;9.070;2023-08-17T00:20:02;5.30;;;4.90;;
15198;SDS011;7700;48.654;9.070;2023-08-17T00:22:30;5.88;;;5.35;;
15198;SDS011;7700;48.654;9.070;2023-08-17T00:24:56;6.57;;;5.60;;
15198;SDS011;7700;48.654;9.070;2023-08-17T00:27:22;6.30;;;5.70;;
15198;SDS011;7700;48.654;9.070;2023-08-17T00:29:48;5.80;;;5.40;;
15198;SDS011;7700;48.654;9.070;2023-08-17T00:32:14;5.63;;;5.13;;
15198;SDS011;7700;48.654;9.070;2023-08-17T00:34:40;5.78;;;5.28;;
15198;SDS011;7700;48.654;9.070;2023-08-17T00:37:06;5.95;;;4.70;;
15198;SDS011;7700;48.654;9.070;2023-08-17T00:39:32;5.90;;;5.50;;
15198;SDS011;7700;48.654;9.070;2023-08-17T00:41:58;5.32;;;4.93;;
15198;SDS011;7700;48.654;9.070;2023-08-17T00:44:24;5.78;;;5.28;;
15198;SDS011;7700;48.654;9.070;2023-08-17T00:46:50;5.82;;;5.43;;
15198;SDS011;7700;48.654;9.070;2023-08-17T00:49:16;5.75;;;5.22;;
15198;SDS011;7700;48.654;9.070;2023-08-17T00:51:42;6.03;;;5.47;;
15198;SDS011;7700;48.654;9.070;2023-08-17T00:54:08;6.45;;;5.85;;
15198;SDS011;7700;48.654;9.070;2023-08-17T00:56:35;6.00;;;4.22;;
15198;SDS011;7700;48.654;9.070;2023-08-17T00:59:01;4.30;;;3.88;;
15198;SDS011;7700;48.654;9.070;2023-08-17T01:01:27;6.18;;;5.25;;
15198;SDS011;7700;48.654;9.070;2023-08-17T01:03:53;6.07;;;4.35;;
15198;SDS011;7700;48.654;9.070;2023-08-17T01:06:19;13.85;;;5.28;;
15198;SDS011;7700;48.654;9.070;2023-08-17T01:08:45;5.03;;;4.60;;
15198;SDS011;7700;48.654;9.070;2023-08-17T01:13:48;135.50;;;10.25;;
15198;SDS011;7700;48.654;9.070;2023-08-17T01:16:15;6.95;;;5.80;;
15198;SDS011;7700;48.654;9.070;2023-08-17T01:18:47;5.45;;;5.03;;
15198;SDS011;7700;48.654;9.070;2023-08-17T01:21:16;5.22;;;4.75;;
15198;SDS011;7700;48.654;9.070;2023-08-17T01:23:46;5.65;;;5.20;;
15198;SDS011;7700;48.654;9.070;2023-08-17T01:26:12;5.18;;;4.78;;
15198;SDS011;7700;48.654;9.070;2023-08-17T01:28:40;5.55;;;5.10;;
15198;SDS011;7700;48.654;9.070;2023-08-17T01:31:14;6.00;;;4.88;;
15198;SDS011;7700;48.654;9.070;2023-08-17T01:33:48;5.22;;;4.72;;
15198;SDS011;7700;48.654;9.070;2023-08-17T01:38:43;5.57;;;5.20;;
15198;SDS011;7700;48.654;9.070;2023-08-17T01:41:10;5.38;;;4.93;;
15198;SDS011;7700;48.654;9.070;2023-08-17T01:43:43;5.75;;;5.20;;
15198;SDS011;7700;48.654;9.070;2023-08-17T01:46:16;5.55;;;5.13;;
15198;SDS011;7700;48.654;9.070;2023-08-17T01:48:42;5.63;;;5.15;;
15198;SDS011;7700;48.654;9.070;2023-08-17T01:51:09;7.57;;;5.90;;
15198;SDS011;7700;48.654;9.070;2023-08-17T01:53:35;7.00;;;6.30;;
15198;SDS011;7700;48.654;9.070;2023-08-17T01:56:01;7.80;;;5.95;;
15198;SDS011;7700;48.654;9.070;2023-08-17T01:58:27;4.82;;;4.53;;
15198;SDS011;7700;48.654;9.070;2023-08-17T02:00:53;4.18;;;3.92;;
15198;SDS011;7700;48.654;9.070;2023-08-17T02:03:19;4.40;;;4.07;;
15198;SDS011;7700;48.654;9.070;2023-08-17T02:05:45;9.45;;;6.43;;
15198;SDS011;7700;48.654;9.070;2023-08-17T02:08:11;10.10;;;7.80;;
15198;SDS011;7700;48.654;9.070;2023-08-17T02:10:37;20.73;;;8.30;;
15198;SDS011;7700;48.654;9.070;2023-08-17T02:13:03;16.50;;;8.60;;
15198;SDS011;7700;48.654;9.070;2023-08-17T02:15:29;9.63;;;8.73;;
15198;SDS011;7700;48.654;9.070;2023-08-17T02:17:56;15.65;;;10.48;;
15198;SDS011;7700;48.654;9.070;2023-08-17T02:20:22;11.43;;;10.32;;
15198;SDS011;7700;48.654;9.070;2023-08-17T02:22:48;13.63;;;10.80;;
15198;SDS011;7700;48.654;9.070;2023-08-17T02:25:14;11.27;;;10.18;;
15198;SDS011;7700;48.654;9.070;2023-08-17T02:27:40;10.35;;;9.35;;
15198;SDS011;7700;48.654;9.070;2023-08-17T02:30:06;10.40;;;9.40;;
15198;SDS011;7700;48.654;9.070;2023-08-17T02:32:32;9.52;;;8.52;;
15198;SDS011;7700;48.654;9.070;2023-08-17T02:34:58;9.10;;;8.30;;
15198;SDS011;7700;48.654;9.070;2023-08-17T02:37:24;9.43;;;8.63;;
15198;SDS011;7700;48.654;9.070;2023-08-17T02:42:35;8.73;;;8.00;;
15198;SDS011;7700;48.654;9.070;2023-08-17T02:45:01;8.32;;;7.63;;
15198;SDS011;7700;48.654;9.070;2023-08-17T02:47:27;7.75;;;7.15;;
15198;SDS011;7700;48.654;9.070;2023-08-17T02:49:53;8.38;;;7.60;;
15198;SDS011;7700;48.654;9.070;2023-08-17T02:52:19;9.50;;;8.63;;
15198;SDS011;7700;48.654;9.070;2023-08-17T02:54:45;9.65;;;8.65;;
15198;SDS011;7700;48.654;9.070;2023-08-17T02:57:11;10.43;;;9.43;;
15198;SDS011;7700;48.654;9.070;2023-08-17T02:59:37;9.30;;;8.48;;
15198;SDS011;7700;48.654;9.070;2023-08-17T03:02:03;10.30;;;9.43;;
15198;SDS011;7700;48.654;9.070;2023-08-17T03:04:29;11.55;;;10.25;;
15198;SDS011;7700;48.654;9.070;2023-08-17T03:06:55;10.88;;;9.88;;
15198;SDS011;7700;48.654;9.070;2023-08-17T03:09:21;11.75;;;10.68;;
15198;SDS011;7700;48.654;9.070;2023-08-17T03:11:47;10.73;;;9.73;;
15198;SDS011;7700;48.654;9.070;2023-08-17T03:14:13;11.35;;;10.10;;
15198;SDS011;7700;48.654;9.070;2023-08-17T03:16:39;10.93;;;9.82;;
15198;SDS011;7700;48.654;9.070;2023-08-17T03:19:05;12.38;;;10.98;;
15198;SDS011;7700;48.654;9.070;2023-08-17T03:21:33;11.73;;;10.38;;
15198;SDS011;7700;48.654;9.070;2023-08-17T03:23:59;11.18;;;10.07;;
15198;SDS011;7700;48.654;9.070;2023-08-17T03:26:25;10.95;;;9.88;;
15198;SDS011;7700;48.654;9.070;2023-08-17T03:28:51;10.88;;;9.77;;
15198;SDS011;7700;48.654;9.070;2023-08-17T03:31:17;10.70;;;9.80;;
15198;SDS011;7700;48.654;9.070;2023-08-17T03:33:43;12.52;;;9.73;;
15198;SDS011;7700;48.654;9.070;2023-08-17T03:36:08;10.77;;;9.57;;
15198;SDS011;7700;48.654;9.070;2023-08-17T03:38:34;13.45;;;10.63;;
15198;SDS011;7700;48.654;9.070;2023-08-17T03:41:00;15.15;;;11.73;;
15198;SDS011;7700;48.654;9.070;2023-08-17T03:43:26;15.52;;;11.93;;
15198;SDS011;7700;48.654;9.070;2023-08-17T03:45:52;14.43;;;12.27;;
15198;SDS011;7700;48.654;9.070;2023-08-17T03:48:18;20.58;;;13.25;;
15198;SDS011;7700;48.654;9.070;2023-08-17T03:50:44;15.02;;;12.93;;
15198;SDS011;7700;48.654;9.070;2023-08-17T03:53:10;22.80;;;13.13;;
15198;SDS011;7700;48.654;9.070;2023-08-17T03:55:36;25.83;;;15.40;;
15198;SDS011;7700;48.654;9.070;2023-08-17T03:58:02;21.20;;;15.82;;
15198;SDS011;7700;48.654;9.070;2023-08-17T04:00:28;22.88;;;16.65;;
15198;SDS011;7700;48.654;9.070;2023-08-17T04:02:54;21.40;;;15.73;;
15198;SDS011;7700;48.654;9.070;2023-08-17T04:05:20;30.77;;;18.02;;
15198;SDS011;7700;48.654;9.070;2023-08-17T04:07:46;24.00;;;18.23;;
15198;SDS011;7700;48.654;9.070;2023-08-17T04:10:12;35.45;;;17.35;;
15198;SDS011;7700;48.654;9.070;2023-08-17T04:12:38;32.17;;;16.00;;
15198;SDS011;7700;48.654;9.070;2023-08-17T04:15:04;28.55;;;16.55;;
15198;SDS011;7700;48.654;9.070;2023-08-17T04:17:30;23.35;;;16.75;;
15198;SDS011;7700;48.654;9.070;2023-08-17T04:19:56;27.75;;;17.38;;
15198;SDS011;7700;48.654;9.070;2023-08-17T04:22:23;25.27;;;16.17;;
15198;SDS011;7700;48.654;9.070;2023-08-17T04:24:49;32.22;;;18.17;;
15198;SDS011;7700;48.654;9.070;2023-08-17T04:27:15;28.00;;;17.85;;
15198;SDS011;7700;48.654;9.070;2023-08-17T04:29:41;25.27;;;17.70;;
15198;SDS011;7700;48.654;9.070;2023-08-17T04:32:07;22.77;;;16.52;;
15198;SDS011;7700;48.654;9.070;2023-08-17T04:34:39;24.05;;;17.48;;
15198;SDS011;7700;48.654;9.070;2023-08-17T04:37:06;26.60;;;16.27;;
15198;SDS011;7700;48.654;9.070;2023-08-17T04:39:32;32.35;;;16.38;;
15198;SDS011;7700;48.654;9.070;2023-08-17T04:41:58;28.48;;;16.20;;
15198;SDS011;7700;48.654;9.070;2023-08-17T04:44:24;23.65;;;16.00;;
15198;SDS011;7700;48.654;9.070;2023-08-17T04:46:50;19.35;;;15.07;;
15198;SDS011;7700;48.654;9.070;2023-08-17T04:49:16;30.45;;;14.98;;
15198;SDS011;7700;48.654;9.070;2023-08-17T04:51:42;20.38;;;15.32;;
15198;SDS011;7700;48.654;9.070;2023-08-17T04:54:08;22.65;;;15.13;;
15198;SDS011;7700;48.654;9.070;2023-08-17T04:56:34;20.60;;;15.50;;
15198;SDS011;7700;48.654;9.070;2023-08-17T04:58:59;35.88;;;16.27;;
15198;SDS011;7700;48.654;9.070;2023-08-17T05:01:25;31.70;;;16.92;;
15198;SDS011;7700;48.654;9.070;2023-08-17T05:03:51;20.17;;;15.68;;
15198;SDS011;7700;48.654;9.070;2023-08-17T05:06:17;19.75;;;15.50;;
15198;SDS011;7700;48.654;9.070;2023-08-17T05:08:43;26.38;;;14.90;;
15198;SDS011;7700;48.654;9.070;2023-08-17T05:11:09;17.85;;;13.93;;
15198;SDS011;7700;48.654;9.070;2023-08-17T05:13:35;17.40;;;15.07;;
15198;SDS011;7700;48.654;9.070;2023-08-17T05:16:01;18.25;;;14.60;;
15198;SDS011;7700;48.654;9.070;2023-08-17T05:18:27;54.65;;;14.65;;
15198;SDS011;7700;48.654;9.070;2023-08-17T05:20:53;103.43;;;17.17;;
15198;SDS011;7700;48.654;9.070;2023-08-17T05:23:19;33.80;;;15.10;;
15198;SDS011;7700;48.654;9.070;2023-08-17T05:25:46;118.45;;;18.10;;
15198;SDS011;7700;48.654;9.070;2023-08-17T05:28:12;24.00;;;13.88;;
15198;SDS011;7700;48.654;9.070;2023-08-17T05:30:38;23.73;;;13.18;;
15198;SDS011;7700;48.654;9.070;2023-08-17T05:33:04;15.82;;;13.82;;
15198;SDS011;7700;48.654;9.070;2023-08-17T05:35:30;16.15;;;13.70;;
15198;SDS011;7700;48.654;9.070;2023-08-17T05:37:56;38.83;;;14.57;;
15198;SDS011;7700;48.654;9.070;2023-08-17T05:40:22;35.80;;;13.60;;
15198;SDS011;7700;48.654;9.070;2023-08-17T05:42:48;44.00;;;13.35;;
15198;SDS011;7700;48.654;9.070;2023-08-17T05:45:14;23.35;;;13.25;;
15198;SDS011;7700;48.654;9.070;2023-08-17T05:47:40;24.55;;;12.98;;
15198;SDS011;7700;48.654;9.070;2023-08-17T05:50:06;35.90;;;15.50;;
15198;SDS011;7700;48.654;9.070;2023-08-17T05:52:32;31.88;;;14.40;;
15198;SDS011;7700;48.654;9.070;2023-08-17T05:54:58;20.23;;;14.40;;
15198;SDS011;7700;48.654;9.070;2023-08-17T05:57:24;19.58;;;14.93;;
15198;SDS011;7700;48.654;9.070;2023-08-17T05:59:50;27.67;;;15.63;;
15198;SDS011;7700;48.654;9.070;2023-08-17T06:02:16;21.70;;;14.15;;
15198;SDS011;7700;48.654;9.070;2023-08-17T06:04:42;39.25;;;14.45;;
15198;SDS011;7700;48.654;9.070;2023-08-17T06:07:07;19.13;;;14.35;;
15198;SDS011;7700;48.654;9.070;2023-08-17T06:09:33;24.75;;;14.40;;
15198;SDS011;7700;48.654;9.070;2023-08-17T06:11:59;16.50;;;14.18;;
15198;SDS011;7700;48.654;9.070;2023-08-17T06:14:25;52.72;;;15.57;;
15198;SDS011;7700;48.654;9.070;2023-08-17T06:16:51;49.25;;;16.52;;
15198;SDS011;7700;48.654;9.070;2023-08-17T06:19:17;79.80;;;18.40;;
15198;SDS011;7700;48.654;9.070;2023-08-17T06:21:43;49.80;;;17.33;;
15198;SDS011;7700;48.654;9.070;2023-08-17T06:24:09;20.05;;;15.80;;
15198;SDS011;7700;48.654;9.070;2023-08-17T06:26:35;40.40;;;16.20;;
15198;SDS011;7700;48.654;9.070;2023-08-17T06:29:01;28.33;;;15.52;;
15198;SDS011;7700;48.654;9.070;2023-08-17T06:31:27;35.78;;;14.70;;
15198;SDS011;7700;48.654;9.070;2023-08-17T06:33:54;45.05;;;16.15;;
15198;SDS011;7700;48.654;9.070;2023-08-17T06:36:20;14.93;;;13.27;;
15198;SDS011;7700;48.654;9.070;2023-08-17T06:38:46;38.65;;;14.43;;
15198;SDS011;7700;48.654;9.070;2023-08-17T06:41:12;14.25;;;12.85;;
15198;SDS011;7700;48.654;9.070;2023-08-17T06:43:38;16.98;;;13.60;;
15198;SDS011;7700;48.654;9.070;2023-08-17T06:46:04;14.55;;;13.05;;
15198;SDS011;7700;48.654;9.070;2023-08-17T06:48:30;12.45;;;11.35;;
15198;SDS011;7700;48.654;9.070;2023-08-17T06:50:57;13.02;;;11.80;;
15198;SDS011;7700;48.654;9.070;2023-08-17T06:53:23;12.88;;;11.68;;
15198;SDS011;7700;48.654;9.070;2023-08-17T06:55:49;11.57;;;10.48;;
15198;SDS011;7700;48.654;9.070;2023-08-17T06:58:15;11.90;;;10.82;;
15198;SDS011;7700;48.654;9.070;2023-08-17T07:00:41;12.15;;;11.05;;
15198;SDS011;7700;48.654;9.070;2023-08-17T07:03:08;13.02;;;11.82;;
15198;SDS011;7700;48.654;9.070;2023-08-17T07:05:34;13.65;;;12.27;;
15198;SDS011;7700;48.654;9.070;2023-08-17T07:08:00;14.13;;;12.70;;
15198;SDS011;7700;48.654;9.070;2023-08-17T07:10:27;13.30;;;12.00;;
15198;SDS011;7700;48.654;9.070;2023-08-17T07:12:53;14.82;;;12.77;;
15198;SDS011;7700;48.654;9.070;2023-08-17T07:15:19;12.10;;;10.95;;
15198;SDS011;7700;48.654;9.070;2023-08-17T07:17:44;10.95;;;9.95;;
15198;SDS011;7700;48.654;9.070;2023-08-17T07:20:11;14.02;;;12.23;;
15198;SDS011;7700;48.654;9.070;2023-08-17T07:22:37;11.90;;;10.85;;
15198;SDS011;7700;48.654;9.070;2023-08-17T07:25:03;10.13;;;9.07;;
15198;SDS011;7700;48.654;9.070;2023-08-17T07:27:29;12.77;;;11.68;;
15198;SDS011;7700;48.654;9.070;2023-08-17T07:29:55;10.90;;;9.88;;
15198;SDS011;7700;48.654;9.070;2023-08-17T07:32:21;12.27;;;11.13;;
15198;SDS011;7700;48.654;9.070;2023-08-17T07:34:47;10.98;;;9.98;;
15198;SDS011;7700;48.654;9.070;2023-08-17T07:37:13;11.43;;;10.43;;
15198;SDS011;7700;48.654;9.070;2023-08-17T07:39:39;11.63;;;10.63;;
15198;SDS011;7700;48.654;9.070;2023-08-17T07:42:05;11.77;;;10.77;;
15198;SDS011;7700;48.654;9.070;2023-08-17T07:44:31;12.43;;;11.32;;
15198;SDS011;7700;48.654;9.070;2023-08-17T07:46:58;11.43;;;10.50;;
15198;SDS011;7700;48.654;9.070;2023-08-17T07:49:24;11.48;;;10.45;;
15198;SDS011;7700;48.654;9.070;2023-08-17T07:51:50;11.90;;;10.80;;
15198;SDS011;7700;48.654;9.070;2023-08-17T07:54:16;12.63;;;11.52;;
15198;SDS011;7700;48.654;9.070;2023-08-17T07:56:42;12.23;;;11.02;;
15198;SDS011;7700;48.654;9.070;2023-08-17T07:59:08;12.73;;;11.50;;
15198;SDS011;7700;48.654;9.070;2023-08-17T08:01:34;12.63;;;11.52;;
15198;SDS011;7700;48.654;9.070;2023-08-17T08:04:00;12.35;;;11.25;;
15198;SDS011;7700;48.654;9.070;2023-08-17T08:06:26;10.70;;;9.60;;
15198;SDS011;7700;48.654;9.070;2023-08-17T08:08:52;10.25;;;9.35;;
15198;SDS011;7700;48.654;9.070;2023-08-17T08:11:18;12.82;;;11.60;;
15198;SDS011;7700;48.654;9.070;2023-08-17T08:13:44;12.90;;;11.77;;
15198;SDS011;7700;48.654;9.070;2023-08-17T08:16:10;13.15;;;11.95;;
15198;SDS011;7700;48.654;9.070;2023-08-17T08:18:35;13.15;;;11.98;;
15198;SDS011;7700;48.654;9.070;2023-08-17T08:21:01;12.70;;;11.50;;
15198;SDS011;7700;48.654;9.070;2023-08-17T08:23:27;14.05;;;12.75;;
15198;SDS011;7700;48.654;9.070;2023-08-17T08:25:54;14.18;;;12.88;;
15198;SDS011;7700;48.654;9.070;2023-08-17T08:28:20;12.35;;;11.25;;
15198;SDS011;7700;48.654;9.070;2023-08-17T08:30:47;13.20;;;12.10;;
15198;SDS011;7700;48.654;9.070;2023-08-17T08:33:13;12.45;;;11.35;;
15198;SDS011;7700;48.654;9.070;2023-08-17T08:35:39;13.18;;;12.07;;
15198;SDS011;7700;48.654;9.070;2023-08-17T08:38:05;13.65;;;12.20;;
15198;SDS011;7700;48.654;9.070;2023-08-17T08:40:31;13.52;;;12.32;;
15198;SDS011;7700;48.654;9.070;2023-08-17T08:42:57;11.02;;;10.13;;
15198;SDS011;7700;48.654;9.070;2023-08-17T08:45:23;11.50;;;10.50;;
15198;SDS011;7700;48.654;9.070;2023-08-17T08:47:49;10.10;;;9.25;;
15198;SDS011;7700;48.654;9.070;2023-08-17T08:50:17;10.20;;;9.20;;
15198;SDS011;7700;48.654;9.070;2023-08-17T08:52:50;7.28;;;6.68;;
15198;SDS011;7700;48.654;9.070;2023-08-17T08:55:20;7.82;;;7.22;;
15198;SDS011;7700;48.654;9.070;2023-08-17T08:57:47;7.07;;;6.55;;
15198;SDS011;7700;48.654;9.070;2023-08-17T09:00:14;6.85;;;6.25;;
15198;SDS011;7700;48.654;9.070;2023-08-17T09:02:40;6.28;;;5.68;;
15198;SDS011;7700;48.654;9.070;2023-08-17T09:05:08;6.35;;;5.75;;
15198;SDS011;7700;48.654;9.070;2023-08-17T09:07:35;6.65;;;5.47;;
15198;SDS011;7700;48.654;9.070;2023-08-17T09:10:01;5.30;;;4.88;;
15198;SDS011;7700;48.654;9.070;2023-08-17T09:12:28;5.45;;;4.90;;
15198;SDS011;7700;48.654;9.070;2023-08-17T09:14:55;5.57;;;4.63;;
15198;SDS011;7700;48.654;9.070;2023-08-17T09:17:27;5.07;;;4.63;;
15198;SDS011;7700;48.654;9.070;2023-08-17T09:19:53;5.80;;;5.30;;
15198;SDS011;7700;48.654;9.070;2023-08-17T09:25:05;4.97;;;4.57;;
15198;SDS011;7700;48.654;9.070;2023-08-17T09:27:31;4.75;;;4.35;;
15198;SDS011;7700;48.654;9.070;2023-08-17T09:30:04;5.82;;;5.30;;
15198;SDS011;7700;48.654;9.070;2023-08-17T09:32:31;5.50;;;5.00;;
15198;SDS011;7700;48.654;9.070;2023-08-17T09:34:57;5.28;;;4.88;;
15198;SDS011;7700;48.654;9.070;2023-08-17T09:37:23;4.72;;;4.43;;
15198;SDS011;7700;48.654;9.070;2023-08-17T09:39:49;4.75;;;4.35;;
15198;SDS011;7700;48.654;9.070;2023-08-17T09:42:15;4.32;;;3.92;;
15198;SDS011;7700;48.654;9.070;2023-08-17T09:44:43;5.13;;;3.95;;
15198;SDS011;7700;48.654;9.070;2023-08-17T09:47:09;4.28;;;3.97;;
15198;SDS011;7700;48.654;9.070;2023-08-17T09:49:35;4.28;;;3.97;;
15198;SDS011;7700;48.654;9.070;2023-08-17T09:52:01;4.90;;;4.50;;
15198;SDS011;7700;48.654;9.070;2023-08-17T09:54:27;4.80;;;4.43;;
15198;SDS011;7700;48.654;9.070;2023-08-17T09:56:56;4.38;;;3.97;;
15198;SDS011;7700;48.654;9.070;2023-08-17T09:59:23;4.43;;;4.05;;
15198;SDS011;7700;48.654;9.070;2023-08-17T10:03:29;4.57;;;4.22;;
15198;SDS011;7700;48.654;9.070;2023-08-17T10:05:57;4.28;;;3.97;;
15198;SDS011;7700;48.654;9.070;2023-08-17T10:08:24;4.40;;;4.10;;
15198;SDS011;7700;48.654;9.070;2023-08-17T10:10:51;4.70;;;4.30;;
15198;SDS011;7700;48.654;9.070;2023-08-17T10:13:28;4.43;;;4.13;;
15198;SDS011;7700;48.654;9.070;2023-08-17T10:18:30;4.45;;;4.15;;
15198;SDS011;7700;48.654;9.070;2023-08-17T10:21:10;4.93;;;4.63;;
15198;SDS011;7700;48.654;9.070;2023-08-17T10:23:37;4.50;;;4.10;;
15198;SDS011;7700;48.654;9.070;2023-08-17T10:26:04;4.40;;;4.00;;
15198;SDS011;7700;48.654;9.070;2023-08-17T10:28:33;4.40;;;4.00;;
15198;SDS011;7700;48.654;9.070;2023-08-17T10:30:59;4.20;;;3.90;;
15198;SDS011;7700;48.654;9.070;2023-08-17T10:33:25;5.45;;;4.15;;
15198;SDS011;7700;48.654;9.070;2023-08-17T10:35:52;4.35;;;4.05;;
15198;SDS011;7700;48.654;9.070;2023-08-17T10:38:18;4.90;;;4.60;;
15198;SDS011;7700;48.654;9.070;2023-08-17T10:40:44;4.03;;;3.70;;
15198;SDS011;7700;48.654;9.070;2023-08-17T10:43:10;4.75;;;4.18;;
15198;SDS011;7700;48.654;9.070;2023-08-17T10:45:37;4.85;;;4.45;;
15198;SDS011;7700;48.654;9.070;2023-08-17T10:50:33;5.03;;;4.63;;
15198;SDS011;7700;48.654;9.070;2023-08-17T10:53:03;4.05;;;3.75;;
15198;SDS011;7700;48.654;9.070;2023-08-17T10:55:36;4.30;;;4.00;;
15198;SDS011;7700;48.654;9.070;2023-08-17T10:58:03;4.70;;;4.40;;
15198;SDS011;7700;48.654;9.070;2023-08-17T11:00:38;4.60;;;4.15;;
15198;SDS011;7700;48.654;9.070;2023-08-17T11:07:59;4.20;;;3.92;;
15198;SDS011;7700;48.654;9.070;2023-08-17T11:12:55;4.70;;;4.30;;
15198;SDS011;7700;48.654;9.070;2023-08-17T11:15:24;7.15;;;4.60;;
15198;SDS011;7700;48.654;9.070;2023-08-17T11:17:50;5.72;;;4.75;;
15198;SDS011;7700;48.654;9.070;2023-08-17T11:20:17;5.30;;;4.90;;
15198;SDS011;7700;48.654;9.070;2023-08-17T11:22:43;5.20;;;4.70;;
15198;SDS011;7700;48.654;9.070;2023-08-17T11:25:09;5.15;;;4.75;;
15198;SDS011;7700;48.654;9.070;2023-08-17T11:27:35;4.57;;;4.28;;
15198;SDS011;7700;48.654;9.070;2023-08-17T11:30:02;4.70;;;4.30;;
15198;SDS011;7700;48.654;9.070;2023-08-17T11:32:28;5.22;;;4.68;;
15198;SDS011;7700;48.654;9.070;2023-08-17T11:34:54;4.47;;;4.10;;
15198;SDS011;7700;48.654;9.070;2023-08-17T11:37:21;4.90;;;3.97;;
15198;SDS011;7700;48.654;9.070;2023-08-17T11:39:47;5.45;;;4.10;;
15198;SDS011;7700;48.654;9.070;2023-08-17T11:42:13;3.92;;;3.63;;
15198;SDS011;7700;48.654;9.070;2023-08-17T11:44:39;4.07;;;3.80;;
15198;SDS011;7700;48.654;9.070;2023-08-17T11:47:05;9.75;;;4.38;;
15198;SDS011;7700;48.654;9.070;2023-08-17T11:49:32;3.80;;;3.50;;
15198;SDS011;7700;48.654;9.070;2023-08-17T11:51:59;31.33;;;5.10;;
15198;SDS011;7700;48.654;9.070;2023-08-17T11:54:25;4.63;;;4.10;;
15198;SDS011;7700;48.654;9.070;2023-08-17T11:56:51;4.00;;;3.70;;
15198;SDS011;7700;48.654;9.070;2023-08-17T11:59:18;3.97;;;3.67;;
15198;SDS011;7700;48.654;9.070;2023-08-17T12:01:45;4.03;;;3.72;;
15198;SDS011;7700;48.654;9.070;2023-08-17T12:04:11;4.60;;;3.60;;
15198;SDS011;7700;48.654;9.070;2023-08-17T12:06:40;5.13;;;4.20;;
15198;SDS011;7700;48.654;9.070;2023-08-17T12:09:09;4.70;;;4.30;;
15198;SDS011;7700;48.654;9.070;2023-08-17T12:11:39;4.78;;;4.35;;
15198;SDS011;7700;48.654;9.070;2023-08-17T12:14:12;4.60;;;4.25;;
15198;SDS011;7700;48.654;9.070;2023-08-17T12:16:45;4.85;;;4.45;;
15198;SDS011;7700;48.654;9.070;2023-08-17T12:19:14;5.32;;;4.93;;
15198;SDS011;7700;48.654;9.070;2023-08-17T12:21:41;4.80;;;4.45;;
15198;SDS011;7700;48.654;9.070;2023-08-17T12:24:09;5.18;;;4.78;;
15198;SDS011;7700;48.654;9.070;2023-08-17T12:26:42;4.88;;;4.47;;
15198;SDS011;7700;48.654;9.070;2023-08-17T12:29:11;4.63;;;4.22;;
15198;SDS011;7700;48.654;9.070;2023-08-17T12:31:40;4.88;;;4.32;;
15198;SDS011;7700;48.654;9.070;2023-08-17T12:34:07;5.03;;;3.90;;
15198;SDS011;7700;48.654;9.070;2023-08-17T12:36:34;7.45;;;4.32;;
15198;SDS011;7700;48.654;9.070;2023-08-17T12:39:03;4.45;;;4.05;;
15198;SDS011;7700;48.654;9.070;2023-08-17T12:41:29;4.78;;;4.40;;
15198;SDS011;7700;48.654;9.070;2023-08-17T12:43:55;4.65;;;4.25;;
15198;SDS011;7700;48.654;9.070;2023-08-17T12:46:24;5.10;;;4.70;;
15198;SDS011;7700;48.654;9.070;2023-08-17T12:48:50;4.63;;;4.22;;
15198;SDS011;7700;48.654;9.070;2023-08-17T12:51:19;4.53;;;4.22;;
15198;SDS011;7700;48.654;9.070;2023-08-17T12:53:45;5.30;;;4.80;;
15198;SDS011;7700;48.654;9.070;2023-08-17T12:56:11;5.43;;;4.82;;
15198;SDS011;7700;48.654;9.070;2023-08-17T12:58:37;5.00;;;4.60;;
15198;SDS011;7700;48.654;9.070;2023-08-17T13:01:03;5.50;;;5.05;;
15198;SDS011;7700;48.654;9.070;2023-08-17T13:03:29;6.22;;;5.32;;
15198;SDS011;7700;48.654;9.070;2023-08-17T13:05:55;5.55;;;5.00;;
15198;SDS011;7700;48.654;9.070;2023-08-17T13:08:21;4.97;;;4.47;;
15198;SDS011;7700;48.654;9.070;2023-08-17T13:10:47;6.15;;;5.22;;
15198;SDS011;7700;48.654;9.070;2023-08-17T13:13:13;6.93;;;5.32;;
15198;SDS011;7700;48.654;9.070;2023-08-17T13:15:39;5.22;;;4.82;;
15198;SDS011;7700;48.654;9.070;2023-08-17T13:18:07;6.05;;;4.90;;
15198;SDS011;7700;48.654;9.070;2023-08-17T13:20:33;5.80;;;5.30;;
15198;SDS011;7700;48.654;9.070;2023-08-17T13:22:59;6.35;;;5.00;;
15198;SDS011;7700;48.654;9.070;2023-08-17T13:25:25;5.97;;;5.45;;
15198;SDS011;7700;48.654;9.070;2023-08-17T13:27:53;5.95;;;5.25;;
15198;SDS011;7700;48.654;9.070;2023-08-17T13:30:19;5.32;;;4.82;;
15198;SDS011;7700;48.654;9.070;2023-08-17T13:32:46;4.65;;;4.30;;
15198;SDS011;7700;48.654;9.070;2023-08-17T13:35:12;5.45;;;4.95;;
15198;SDS011;7700;48.654;9.070;2023-08-17T13:37:38;5.50;;;4.68;;
15198;SDS011;7700;48.654;9.070;2023-08-17T13:40:04;5.57;;;5.07;;
15198;SDS011;7700;48.654;9.070;2023-08-17T13:42:30;5.90;;;5.18;;
15198;SDS011;7700;48.654;9.070;2023-08-17T13:44:56;5.13;;;4.72;;
15198;SDS011;7700;48.654;9.070;2023-08-17T13:47:22;5.80;;;5.13;;
15198;SDS011;7700;48.654;9.070;2023-08-17T13:49:48;5.55;;;5.05;;
15198;SDS011;7700;48.654;9.070;2023-08-17T13:52:14;6.18;;;5.57;;
15198;SDS011;7700;48.654;9.070;2023-08-17T13:54:40;6.32;;;5.53;;
15198;SDS011;7700;48.654;9.070;2023-08-17T13:57:06;6.30;;;5.68;;
15198;SDS011;7700;48.654;9.070;2023-08-17T13:59:32;7.13;;;6.40;;
15198;SDS011;7700;48.654;9.070;2023-08-17T14:01:58;6.28;;;5.80;;
15198;SDS011;7700;48.654;9.070;2023-08-17T14:04:24;7.25;;;6.55;;
15198;SDS011;7700;48.654;9.070;2023-08-17T14:06:50;7.05;;;6.45;;
15198;SDS011;7700;48.654;9.070;2023-08-17T14:09:17;6.97;;;6.28;;
15198;SDS011;7700;48.654;9.070;2023-08-17T14:11:43;6.90;;;6.40;;
15198;SDS011;7700;48.654;9.070;2023-08-17T14:14:09;7.93;;;6.53;;
15198;SDS011;7700;48.654;9.070;2023-08-17T14:16:35;6.55;;;5.95;;
15198;SDS011;7700;48.654;9.070;2023-08-17T14:19:01;7.07;;;6.47;;
15198;SDS011;7700;48.654;9.070;2023-08-17T14:21:27;6.93;;;6.15;;
15198;SDS011;7700;48.654;9.070;2023-08-17T14:23:53;6.80;;;6.20;;
15198;SDS011;7700;48.654;9.070;2023-08-17T14:26:19;6.95;;;6.15;;
15198;SDS011;7700;48.654;9.070;2023-08-17T14:28:45;7.10;;;5.93;;
15198;SDS011;7700;48.654;9.070;2023-08-17T14:31:11;7.50;;;6.80;;
15198;SDS011;7700;48.654;9.070;2023-08-17T14:33:40;7.25;;;6.55;;
15198;SDS011;7700;48.654;9.070;2023-08-17T14:36:06;6.68;;;6.07;;
15198;SDS011;7700;48.654;9.070;2023-08-17T14:38:32;6.60;;;6.10;;
15198;SDS011;7700;48.654;9.070;2023-08-17T14:41:00;6.85;;;6.25;;
15198;SDS011;7700;48.654;9.070;2023-08-17T14:43:29;7.07;;;6.32;;
15198;SDS011;7700;48.654;9.070;2023-08-17T14:45:55;8.43;;;7.10;;
15198;SDS011;7700;48.654;9.070;2023-08-17T14:48:21;7.20;;;5.78;;
15198;SDS011;7700;48.654;9.070;2023-08-17T14:50:47;8.00;;;6.28;;
15198;SDS011;7700;48.654;9.070;2023-08-17T14:53:13;9.52;;;7.07;;
15198;SDS011;7700;48.654;9.070;2023-08-17T14:55:39;6.95;;;6.13;;
15198;SDS011;7700;48.654;9.070;2023-08-17T14:58:05;7.22;;;6.50;;
15198;SDS011;7700;48.654;9.070;2023-08-17T15:00:31;7.30;;;6.63;;
15198;SDS011;7700;48.654;9.070;2023-08-17T15:02:57;6.57;;;5.88;;
15198;SDS011;7700;48.654;9.070;2023-08-17T15:05:23;8.25;;;6.47;;
15198;SDS011;7700;48.654;9.070;2023-08-17T15:07:49;8.10;;;6.88;;
15198;SDS011;7700;48.654;9.070;2023-08-17T15:10:15;7.13;;;6.32;;